Terminal Aerodrome Forecast
Issued by NWS

Home | Current Version | Previous Version | Graphics & Text | Print | Product List | Glossary On
Versions: 1 2 3 4 5 6 7 8 9 10 11 12 13 14
026
FTUS43 KBIS 051721
TAFMOT
TAF
KMOT 051721Z 0518/0618 25009KT P6SM SCT120
     FM061200 24012KT P6SM SCT100 WS020/28045KT
     FM061700 25015G23KT P6SM BKN150=

USA.gov is the U.S. government's official web portal to all federal, state and local government web resources and services.